Time;durP1;ratioP1;P1;durP2;ratioP2;P2;SDS_P1;SDS_P2;PMS_P1;PMS_P2;Temp;Humidity;BMP_temperature;BMP_pressure;BME280_temperature;BME280_humidity;BME280_pressure;Samples;Min_cycle;Max_cycle;Signal;HPM_P1;HPM_P2
2021/12/12 00:00:34;;;;;;;1.20;1.20;;;3.90;73.30;3.00;99065.00;;;;5115197;28;20197;-71
2021/12/12 00:03:15;;;;;;;1.00;1.00;;;3.90;72.20;3.10;99071.00;;;;5114457;28;20208;-71
2021/12/12 00:05:45;;;;;;;1.30;1.20;;;3.90;72.00;2.90;99068.00;;;;5115426;28;20217;-72
2021/12/12 00:08:18;;;;;;;0.87;0.87;;;3.80;72.40;3.00;99074.00;;;;5115487;28;20194;-72
2021/12/12 00:10:52;;;;;;;1.00;0.90;;;3.80;71.90;2.70;99083.00;;;;5115385;28;20285;-72
2021/12/12 00:13:32;;;;;;;0.93;0.93;;;3.80;72.10;2.90;99066.00;;;;5115252;28;20232;-72
2021/12/12 00:16:01;;;;;;;0.97;0.97;;;3.70;72.70;3.00;99073.00;;;;5115225;28;20527;-72
2021/12/12 00:18:30;;;;;;;1.33;1.23;;;3.80;72.30;2.90;99077.00;;;;5115164;28;20237;-72
2021/12/12 00:20:57;;;;;;;1.40;1.37;;;3.80;71.40;2.90;99082.00;;;;5115214;28;20194;-73
2021/12/12 00:23:26;;;;;;;0.70;0.70;;;3.80;72.10;2.90;99076.00;;;;5115195;28;20194;-72
2021/12/12 00:25:57;;;;;;;2.50;1.00;;;3.60;72.80;2.80;99075.00;;;;5115136;28;20201;-71
2021/12/12 00:28:25;;;;;;;0.70;0.70;;;3.60;71.70;2.70;99086.00;;;;5115345;28;20288;-71
2021/12/12 00:30:56;;;;;;;1.00;1.00;;;3.60;71.80;2.50;99104.00;;;;5115006;28;20237;-71
2021/12/12 00:33:23;;;;;;;0.97;0.97;;;3.50;72.20;2.50;99083.00;;;;5115036;28;20209;-74
2021/12/12 00:35:51;;;;;;;1.53;1.47;;;3.40;72.80;2.40;99095.00;;;;5114831;28;20250;-71
2021/12/12 00:38:26;;;;;;;1.00;1.00;;;3.30;74.30;2.30;99099.00;;;;5114763;28;20241;-72
2021/12/12 00:41:00;;;;;;;0.70;0.70;;;3.30;74.00;2.20;99094.00;;;;5114793;28;20226;-72
2021/12/12 00:43:33;;;;;;;0.60;0.60;;;3.20;74.30;2.30;99100.00;;;;5096948;28;20623;-71
2021/12/12 00:46:05;;;;;;;0.80;0.80;;;3.10;75.00;2.20;99104.00;;;;5096792;28;20544;-71
2021/12/12 00:48:34;;;;;;;0.90;0.90;;;3.20;74.30;2.20;99099.00;;;;5114634;28;20643;-72
2021/12/12 00:51:09;;;;;;;0.90;0.90;;;3.10;74.60;2.30;99106.00;;;;5096788;28;20300;-71
2021/12/12 00:53:38;;;;;;;0.80;0.80;;;3.10;74.70;2.20;99092.00;;;;5114688;28;20628;-72
2021/12/12 00:56:08;;;;;;;1.20;1.20;;;3.10;74.80;2.20;99106.00;;;;5096775;28;20253;-72
2021/12/12 00:58:37;;;;;;;0.80;0.80;;;3.10;75.10;2.30;99116.00;;;;5096645;28;20242;-72
2021/12/12 01:01:10;;;;;;;4.53;1.23;;;3.20;74.70;2.10;99120.00;;;;5114568;28;20270;-72
2021/12/12 01:03:47;;;;;;;1.80;1.27;;;3.10;74.50;2.10;99113.00;;;;5114488;28;20217;-71
2021/12/12 01:06:16;;;;;;;1.00;1.00;;;3.10;74.80;2.10;99113.00;;;;5114435;28;20232;-71
2021/12/12 01:08:44;;;;;;;2.90;2.70;;;3.00;74.70;2.10;99119.00;;;;5096501;28;20198;-71
2021/12/12 01:11:16;;;;;;;2.10;1.43;;;3.00;74.60;2.20;99130.00;;;;5114514;28;20335;-72
2021/12/12 01:13:48;;;;;;;5.80;1.60;;;3.00;74.80;2.10;99139.00;;;;5098110;28;20213;-71
2021/12/12 01:16:21;;;;;;;1.07;1.07;;;3.00;74.20;2.20;99128.00;;;;5121168;28;20266;-72
2021/12/12 01:18:55;;;;;;;2.53;1.77;;;3.10;74.40;2.30;99135.00;;;;5121079;28;20260;-72
2021/12/12 01:21:28;;;;;;;1.13;1.13;;;3.10;73.90;2.20;99136.00;;;;5121283;28;20660;-72
2021/12/12 01:24:01;;;;;;;0.97;0.97;;;3.10;73.90;2.20;99129.00;;;;5121040;28;20208;-71
2021/12/12 01:26:31;;;;;;;0.60;0.60;;;3.10;73.80;2.30;99127.00;;;;5121106;28;20224;-71
2021/12/12 01:29:00;;;;;;;0.70;0.70;;;3.10;73.00;2.50;99111.00;;;;5121012;28;20197;-72
2021/12/12 01:31:35;;;;;;;1.87;1.23;;;3.20;72.20;2.50;99132.00;;;;5120949;28;20307;-71
2021/12/12 01:34:10;;;;;;;0.97;0.90;;;3.30;71.40;2.50;99138.00;;;;5121084;28;20196;-71
2021/12/12 01:36:48;;;;;;;1.07;1.07;;;3.30;70.80;2.50;99130.00;;;;5120983;28;20219;-71
2021/12/12 01:39:19;;;;;;;1.33;1.33;;;3.30;70.90;2.60;99126.00;;;;5120732;28;20209;-71
2021/12/12 01:41:55;;;;;;;0.93;0.93;;;3.40;70.30;2.60;99140.00;;;;5103054;28;20300;-71
2021/12/12 01:44:30;;;;;;;0.97;0.97;;;3.50;70.30;2.60;99128.00;;;;5120765;28;20521;-71
2021/12/12 01:47:08;;;;;;;0.70;0.70;;;3.50;69.30;2.60;99137.00;;;;5120791;28;20274;-72
2021/12/12 01:49:40;;;;;;;0.90;0.90;;;3.40;69.60;2.60;99135.00;;;;5102789;28;20354;-71
2021/12/12 01:52:10;;;;;;;0.60;0.60;;;3.40;69.80;2.60;99141.00;;;;5120309;28;20239;-71
2021/12/12 01:54:44;;;;;;;1.00;1.00;;;3.40;69.60;2.70;99137.00;;;;5120742;28;20235;-71
2021/12/12 01:57:15;;;;;;;0.83;0.83;;;3.50;68.70;2.70;99141.00;;;;5102822;28;20278;-73
2021/12/12 01:59:44;;;;;;;0.80;0.80;;;3.60;68.60;2.70;99135.00;;;;5120660;28;20629;-71
2021/12/12 02:02:17;;;;;;;1.33;0.93;;;3.50;69.20;2.60;99138.00;;;;5102867;28;20508;-71
2021/12/12 02:04:51;;;;;;;0.80;0.80;;;3.50;69.50;2.70;99136.00;;;;5102649;28;20531;-72
2021/12/12 02:07:24;;;;;;;0.60;0.60;;;3.50;69.90;2.90;99131.00;;;;5120483;28;20231;-71
2021/12/12 02:09:58;;;;;;;0.70;0.70;;;3.60;68.60;3.00;99137.00;;;;5120460;28;20204;-71
2021/12/12 02:12:26;;;;;;;0.60;0.60;;;3.70;67.00;3.00;99140.00;;;;5120581;28;20284;-71
2021/12/12 02:14:56;;;;;;;0.93;0.93;;;3.80;65.50;2.90;99150.00;;;;5120659;28;20486;-71
2021/12/12 02:17:35;;;;;;;0.90;0.90;;;3.70;65.40;2.90;99156.00;;;;5102496;28;20223;-71
2021/12/12 02:20:16;;;;;;;0.77;0.77;;;3.80;65.60;2.90;99156.00;;;;5120390;28;20777;-71
2021/12/12 02:23:00;;;;;;;0.97;0.93;;;3.70;66.10;2.80;99157.00;;;;5120604;28;20277;-71
2021/12/12 02:36:44;;;;;;;0.53;0.53;;;3.60;66.50;2.80;99173.00;;;;5116860;28;20200;-71
2021/12/12 02:39:16;;;;;;;0.77;0.77;;;3.60;66.30;2.60;99176.00;;;;5116741;28;20225;-71
2021/12/12 02:41:50;;;;;;;0.90;0.90;;;3.50;66.90;2.60;99174.00;;;;5116854;28;20204;-71
2021/12/12 02:44:22;;;;;;;1.07;0.83;;;3.50;67.40;2.60;99174.00;;;;5116777;28;20304;-72
2021/12/12 02:46:53;;;;;;;0.80;0.80;;;3.50;67.10;2.60;99157.00;;;;5098788;28;20274;-72
2021/12/12 02:49:36;;;;;;;0.60;0.60;;;3.50;67.10;2.70;99166.00;;;;5098778;28;20194;-72
2021/12/12 02:52:06;;;;;;;0.60;0.60;;;3.50;67.50;2.70;99149.00;;;;5116901;28;20201;-72
2021/12/12 02:54:33;;;;;;;0.60;0.60;;;3.50;67.60;2.60;99094.00;;;;5116799;28;20288;-72
2021/12/12 02:57:02;;;;;;;0.97;0.97;;;3.50;67.70;2.60;99153.00;;;;5098737;28;20308;-71
2021/12/12 02:59:29;;;;;;;0.73;0.73;;;3.50;67.60;2.50;99149.00;;;;5116756;28;20303;-72
2021/12/12 03:02:01;;;;;;;1.43;1.37;;;3.50;67.80;2.50;99142.00;;;;5116552;28;20649;-72
2021/12/12 03:04:29;;;;;;;0.70;0.70;;;3.50;68.10;2.50;99144.00;;;;5116391;28;20210;-71
2021/12/12 03:06:57;;;;;;;1.00;1.00;;;3.40;68.50;2.40;99144.00;;;;5098476;28;20292;-71
2021/12/12 03:09:30;;;;;;;0.70;0.70;;;3.40;69.40;2.40;99150.00;;;;5116151;28;20240;-71
2021/12/12 03:12:01;;;;;;;0.90;0.90;;;3.40;69.10;2.50;99140.00;;;;5116307;28;20725;-71
2021/12/12 03:14:32;;;;;;;0.70;0.70;;;3.40;68.80;2.30;99155.00;;;;5098262;28;20263;-71
2021/12/12 03:17:00;;;;;;;0.70;0.70;;;3.30;69.30;2.30;99158.00;;;;5098306;28;20216;-71
2021/12/12 03:19:29;;;;;;;1.23;1.23;;;3.20;69.80;2.30;99151.00;;;;5116143;28;20236;-71
2021/12/12 03:21:56;;;;;;;0.77;0.77;;;3.20;70.60;2.30;99157.00;;;;5116030;28;20668;-71
2021/12/12 03:24:27;;;;;;;0.60;0.60;;;3.20;70.00;2.30;99156.00;;;;5116069;28;20228;-71
2021/12/12 03:27:00;;;;;;;0.80;0.80;;;3.20;70.20;2.40;99163.00;;;;5116036;28;20229;-71
2021/12/12 03:29:30;;;;;;;0.87;0.87;;;3.20;70.10;2.40;99167.00;;;;5116097;28;20236;-71
2021/12/12 03:32:04;;;;;;;1.00;1.00;;;3.30;70.00;2.40;99163.00;;;;5116011;28;20193;-71
2021/12/12 03:34:36;;;;;;;0.60;0.60;;;3.30;70.30;2.40;99159.00;;;;5097950;28;20495;-72
2021/12/12 03:37:08;;;;;;;0.60;0.60;;;3.30;70.50;2.20;99152.00;;;;5115055;28;20258;-71
2021/12/12 03:39:40;;;;;;;0.80;0.80;;;3.10;70.80;2.10;99155.00;;;;5097787;28;20263;-71
2021/12/12 03:42:17;;;;;;;0.60;0.60;;;3.00;70.80;2.10;99156.00;;;;5097972;28;20205;-71
2021/12/12 03:44:47;;;;;;;0.60;0.60;;;3.00;71.00;2.10;99166.00;;;;5115823;28;20217;-71
2021/12/12 03:47:22;;;;;;;1.07;1.07;;;3.00;71.10;2.00;99157.00;;;;5115872;28;20293;-71
2021/12/12 03:49:50;;;;;;;1.10;1.00;;;3.00;71.20;2.00;99146.00;;;;5115640;28;20208;-71
2021/12/12 03:52:20;;;;;;;0.67;0.67;;;3.00;71.10;2.00;99146.00;;;;5115522;28;20244;-69
2021/12/12 03:54:50;;;;;;;0.50;0.50;;;2.90;71.10;2.00;99146.00;;;;5115601;28;20636;-71
2021/12/12 03:57:20;;;;;;;0.90;0.90;;;2.90;70.60;1.90;99143.00;;;;5115421;28;20229;-72
2021/12/12 03:59:49;;;;;;;0.70;0.70;;;2.90;70.10;1.90;99145.00;;;;5097568;28;20228;-71
2021/12/12 04:02:16;;;;;;;0.70;0.70;;;2.90;70.30;1.90;99145.00;;;;5115613;28;20505;-71
2021/12/12 04:04:46;;;;;;;0.90;0.90;;;2.80;70.40;1.80;99143.00;;;;5115413;28;20300;-72
2021/12/12 04:07:20;;;;;;;0.50;0.50;;;2.80;70.50;1.80;99149.00;;;;5115456;28;20285;-72
2021/12/12 04:09:47;;;;;;;0.70;0.70;;;2.80;70.60;1.90;99142.00;;;;5115418;28;20247;-72
2021/12/12 04:12:19;;;;;;;1.00;0.80;;;2.80;70.70;1.70;99140.00;;;;5115424;28;20216;-69
2021/12/12 04:14:53;;;;;;;0.60;0.60;;;2.70;70.60;1.70;99142.00;;;;5115316;28;20201;-69
2021/12/12 04:17:24;;;;;;;1.10;1.10;;;2.70;70.90;1.70;99145.00;;;;5115243;28;20193;-70
2021/12/12 04:19:56;;;;;;;0.63;0.63;;;2.70;71.10;1.70;99138.00;;;;5115242;28;20221;-70
2021/12/12 04:22:23;;;;;;;1.00;1.00;;;2.70;71.30;1.70;99138.00;;;;5097182;28;20251;-72
2021/12/12 04:24:55;;;;;;;0.63;0.63;;;2.60;71.60;1.60;99143.00;;;;5115125;28;20640;-70
2021/12/12 04:27:24;;;;;;;0.77;0.77;;;2.60;72.00;1.60;99147.00;;;;5115134;28;20306;-70
2021/12/12 04:29:55;;;;;;;0.80;0.80;;;2.60;72.40;1.60;99157.00;;;;5097120;28;20213;-70
2021/12/12 04:32:25;;;;;;;0.77;0.77;;;2.50;72.60;1.60;99163.00;;;;5097189;28;20224;-70
2021/12/12 04:34:58;;;;;;;0.70;0.70;;;2.50;72.90;1.60;99162.00;;;;5114873;28;20315;-70
2021/12/12 04:37:27;;;;;;;1.40;0.90;;;2.50;73.00;1.60;99170.00;;;;5115077;28;20212;-71
2021/12/12 04:39:57;;;;;;;0.70;0.70;;;2.50;73.20;1.60;99170.00;;;;5114631;28;20258;-70
2021/12/12 04:42:30;;;;;;;0.70;0.70;;;2.50;73.20;1.60;99170.00;;;;5114865;28;20199;-71
2021/12/12 04:45:16;;;;;;;1.20;1.03;;;2.50;73.40;1.50;99170.00;;;;5114856;28;20217;-70
2021/12/12 04:50:53;;;;;;;0.90;0.90;;;2.40;73.50;1.40;99173.00;;;;5114705;28;20189;-70
2021/12/12 04:53:31;;;;;;;0.80;0.80;;;2.30;73.90;1.30;99184.00;;;;5096651;28;20236;-70
2021/12/12 04:56:11;;;;;;;1.27;1.27;;;2.30;74.30;1.30;99177.00;;;;5114696;28;20197;-70
2021/12/12 04:58:45;;;;;;;1.00;1.00;;;2.20;74.50;1.30;99179.00;;;;5096606;28;20285;-70
2021/12/12 05:01:19;;;;;;;0.70;0.70;;;2.20;74.80;1.20;99186.00;;;;5114727;28;20231;-70
2021/12/12 05:03:55;;;;;;;0.97;0.80;;;2.20;74.80;1.30;99192.00;;;;5114566;28;20194;-70
2021/12/12 05:06:28;;;;;;;0.80;0.80;;;2.20;75.10;1.20;99169.00;;;;5114399;28;20304;-70
2021/12/12 05:09:04;;;;;;;0.70;0.70;;;2.20;76.10;1.20;99183.00;;;;5114504;28;20206;-70
2021/12/12 05:11:42;;;;;;;0.70;0.70;;;2.20;75.60;1.20;99200.00;;;;5114439;28;20322;-70
2021/12/12 05:14:21;;;;;;;0.80;0.80;;;2.10;75.60;1.10;99192.00;;;;5114593;28;20204;-70
2021/12/12 05:16:54;;;;;;;0.70;0.70;;;2.10;75.60;1.10;99193.00;;;;5114529;28;20215;-71
2021/12/12 05:19:28;;;;;;;0.70;0.70;;;2.00;75.50;1.10;99184.00;;;;5114296;28;20234;-71
2021/12/12 05:22:06;;;;;;;1.00;1.00;;;2.00;75.90;1.00;99190.00;;;;5114399;28;20211;-70
2021/12/12 05:24:36;;;;;;;0.90;0.90;;;2.00;75.90;0.90;99178.00;;;;5114517;28;20243;-70
2021/12/12 05:27:09;;;;;;;2.50;0.90;;;1.90;76.00;1.00;99182.00;;;;5114339;28;20254;-71
2021/12/12 05:29:41;;;;;;;0.70;0.70;;;1.90;76.60;0.90;99185.00;;;;5096378;28;20225;-70
2021/12/12 05:32:10;;;;;;;1.80;1.33;;;2.00;76.60;1.00;99188.00;;;;5114393;28;20196;-70
2021/12/12 05:34:44;;;;;;;0.87;0.87;;;1.90;76.80;1.00;99140.00;;;;5114286;28;20273;-70
2021/12/12 05:37:13;;;;;;;0.60;0.60;;;2.00;76.90;1.00;99193.00;;;;5114303;28;20234;-70
2021/12/12 05:39:42;;;;;;;0.70;0.70;;;1.90;76.70;0.90;99181.00;;;;5113991;28;20248;-70
2021/12/12 05:42:11;;;;;;;1.37;1.37;;;2.00;76.70;0.90;99193.00;;;;5114036;28;20798;-70
2021/12/12 05:44:39;;;;;;;0.67;0.67;;;1.90;76.90;0.90;99189.00;;;;5113965;28;20207;-70
2021/12/12 05:47:10;;;;;;;0.80;0.80;;;1.90;76.90;0.90;99195.00;;;;5114088;28;20237;-70
2021/12/12 05:49:40;;;;;;;1.43;1.33;;;1.90;77.10;0.90;99159.00;;;;5114043;28;20361;-70
2021/12/12 05:52:09;;;;;;;0.70;0.70;;;1.90;77.10;0.90;99194.00;;;;5096093;28;20633;-70
2021/12/12 05:54:38;;;;;;;0.73;0.73;;;1.90;77.00;0.90;99194.00;;;;5113836;28;20219;-70
2021/12/12 05:57:09;;;;;;;0.60;0.60;;;1.90;77.00;0.90;99193.00;;;;5113970;28;20365;-70
2021/12/12 05:59:37;;;;;;;0.83;0.83;;;1.80;76.90;0.80;99190.00;;;;5113817;28;20643;-70
2021/12/12 06:02:06;;;;;;;0.73;0.73;;;1.80;77.80;0.80;99181.00;;;;5098832;28;20238;-70
2021/12/12 06:04:36;;;;;;;1.53;1.53;;;1.80;77.40;0.80;99193.00;;;;5117445;28;20297;-70
2021/12/12 06:07:06;;;;;;;1.13;1.13;;;1.80;77.40;0.70;99185.00;;;;5099302;28;20607;-70
2021/12/12 06:09:35;;;;;;;0.70;0.70;;;1.70;77.60;0.80;99149.00;;;;5117376;28;20684;-70
2021/12/12 06:12:06;;;;;;;0.70;0.70;;;1.70;77.60;0.70;99185.00;;;;5116237;28;20236;-70
2021/12/12 06:14:33;;;;;;;0.60;0.60;;;1.80;77.40;0.90;99202.00;;;;5099299;28;20718;-70
2021/12/12 06:17:04;;;;;;;0.80;0.80;;;1.80;77.20;1.00;99209.00;;;;5117095;28;20309;-70
2021/12/12 06:19:33;;;;;;;0.83;0.83;;;1.90;77.20;1.00;99212.00;;;;5117116;28;20300;-70
2021/12/12 06:22:02;;;;;;;1.37;1.33;;;1.90;76.40;1.10;99211.00;;;;5117005;28;20515;-70
2021/12/12 06:24:31;;;;;;;0.90;0.90;;;2.00;75.80;1.00;99216.00;;;;5116828;28;20238;-70
2021/12/12 06:27:07;;;;;;;0.87;0.87;;;1.90;76.00;0.90;99220.00;;;;5117078;28;20205;-70
2021/12/12 06:29:34;;;;;;;1.00;1.00;;;1.90;76.90;1.00;99213.00;;;;5116927;28;20236;-70
2021/12/12 06:32:04;;;;;;;1.63;1.40;;;1.90;77.00;1.20;99218.00;;;;5117118;28;20359;-70
2021/12/12 06:34:31;;;;;;;1.07;1.07;;;2.00;76.80;1.10;99222.00;;;;5099025;28;20226;-70
2021/12/12 06:36:58;;;;;;;0.70;0.70;;;2.00;75.80;1.10;99225.00;;;;5116813;28;20713;-70
2021/12/12 06:39:26;;;;;;;1.43;1.33;;;2.00;76.80;1.00;99178.00;;;;5116969;28;20299;-70
2021/12/12 06:41:56;;;;;;;1.53;1.47;;;2.00;76.10;0.90;99217.00;;;;5116907;28;20261;-70
2021/12/12 06:44:22;;;;;;;1.00;1.00;;;1.90;76.30;1.00;99230.00;;;;5116651;28;20235;-70
2021/12/12 06:46:53;;;;;;;0.80;0.80;;;1.90;77.80;1.10;99228.00;;;;5116725;28;20620;-70
2021/12/12 06:49:24;;;;;;;0.77;0.77;;;2.00;76.50;1.10;99236.00;;;;5116550;28;20218;-70
2021/12/12 06:51:54;;;;;;;1.27;1.27;;;2.00;76.50;1.00;99236.00;;;;5116623;28;20239;-70
2021/12/12 06:54:25;;;;;;;1.13;1.13;;;2.00;76.50;1.00;99238.00;;;;5116553;28;20204;-70
2021/12/12 06:56:54;;;;;;;0.97;0.97;;;2.00;76.60;1.00;99236.00;;;;5116441;28;20605;-70
2021/12/12 06:59:22;;;;;;;0.63;0.63;;;2.00;76.80;1.00;99241.00;;;;5098444;28;20314;-70
2021/12/12 07:01:50;;;;;;;1.17;1.13;;;2.00;76.90;0.90;99238.00;;;;5116642;28;20225;-70
2021/12/12 07:04:19;;;;;;;0.90;0.90;;;2.00;76.80;1.10;99241.00;;;;5098618;28;20214;-70
2021/12/12 07:06:48;;;;;;;1.50;1.40;;;2.00;76.80;1.10;99235.00;;;;5116485;28;20295;-71
2021/12/12 07:09:16;;;;;;;0.70;0.70;;;2.00;76.70;1.20;99241.00;;;;5116682;28;20280;-71
2021/12/12 07:11:44;;;;;;;0.83;0.83;;;2.10;76.50;1.10;99238.00;;;;5115945;28;20200;-72
2021/12/12 07:14:16;;;;;;;0.80;0.80;;;2.10;76.20;1.10;99240.00;;;;5098228;28;20331;-71
2021/12/12 07:16:45;;;;;;;0.67;0.67;;;2.00;76.10;1.10;99244.00;;;;5116159;28;20287;-72
2021/12/12 07:19:15;;;;;;;0.90;0.90;;;2.00;76.30;1.10;99240.00;;;;5115969;28;20616;-71
2021/12/12 07:21:44;;;;;;;1.13;1.10;;;2.10;76.60;1.10;99241.00;;;;5115967;28;20301;-71
2021/12/12 07:24:12;;;;;;;0.87;0.87;;;2.10;76.80;1.10;99241.00;;;;5116107;28;20205;-71
2021/12/12 07:26:39;;;;;;;0.80;0.80;;;2.00;76.70;1.10;99238.00;;;;5098482;28;20315;-71
2021/12/12 07:29:06;;;;;;;1.03;1.03;;;2.10;76.90;1.10;99244.00;;;;5115955;28;20571;-71
2021/12/12 07:31:38;;;;;;;1.27;1.17;;;2.10;77.00;1.10;99243.00;;;;5115910;28;20229;-71
2021/12/12 07:34:10;;;;;;;0.83;0.83;;;2.10;77.20;1.10;99245.00;;;;5115976;28;20197;-72
2021/12/12 07:36:43;;;;;;;1.13;1.07;;;2.10;77.00;1.10;99258.00;;;;5115964;28;20199;-71
2021/12/12 07:39:14;;;;;;;0.80;0.80;;;2.10;77.20;1.20;99247.00;;;;5115730;28;20289;-71
2021/12/12 07:41:44;;;;;;;0.93;0.93;;;2.10;77.40;1.20;99249.00;;;;5097937;28;20256;-71
2021/12/12 07:44:17;;;;;;;0.83;0.83;;;2.10;76.90;1.20;99248.00;;;;5115643;28;20716;-71
2021/12/12 07:46:46;;;;;;;1.30;1.30;;;2.10;77.20;1.30;99261.00;;;;5097756;28;20529;-72
2021/12/12 07:49:20;;;;;;;0.70;0.70;;;2.20;77.30;1.30;99251.00;;;;5115862;28;20521;-71
2021/12/12 07:51:48;;;;;;;0.90;0.90;;;2.20;77.10;1.30;99250.00;;;;5097857;28;20312;-71
2021/12/12 07:54:16;;;;;;;0.80;0.80;;;2.20;77.20;1.40;99250.00;;;;5115696;28;20186;-71
2021/12/12 07:56:45;;;;;;;0.80;0.80;;;2.20;77.30;1.30;99241.00;;;;5115601;28;20308;-72
2021/12/12 07:59:14;;;;;;;1.70;1.60;;;2.30;77.30;1.40;99249.00;;;;5097516;28;20212;-71
2021/12/12 08:01:46;;;;;;;1.00;1.00;;;2.30;77.70;1.40;99243.00;;;;5097633;28;20261;-71
2021/12/12 08:04:15;;;;;;;1.13;1.13;;;2.30;78.00;1.50;99221.00;;;;5097978;28;20292;-71
2021/12/12 08:06:43;;;;;;;1.27;1.27;;;2.40;77.60;1.50;99250.00;;;;5115362;28;20254;-71
2021/12/12 08:09:12;;;;;;;0.90;0.90;;;2.40;77.20;1.50;99249.00;;;;5096990;28;20319;-71
2021/12/12 08:11:41;;;;;;;1.77;1.67;;;2.40;76.90;1.50;99248.00;;;;5115483;28;20284;-72
2021/12/12 08:14:12;;;;;;;0.70;0.70;;;2.40;76.80;1.70;99261.00;;;;5115268;28;20200;-71
2021/12/12 08:16:40;;;;;;;0.73;0.73;;;2.50;76.50;1.70;99244.00;;;;5115451;28;20208;-71
2021/12/12 08:19:07;;;;;;;1.00;1.00;;;2.60;75.60;1.80;99248.00;;;;5115154;28;20203;-71
2021/12/12 08:21:38;;;;;;;0.80;0.80;;;2.60;74.30;2.00;99249.00;;;;5115105;28;20220;-71
2021/12/12 08:24:09;;;;;;;0.60;0.60;;;2.70;74.80;2.20;99249.00;;;;5114291;28;20219;-71
2021/12/12 08:26:38;;;;;;;0.60;0.60;;;2.90;73.50;2.00;99248.00;;;;5115161;28;20205;-71
2021/12/12 08:29:07;;;;;;;1.20;1.20;;;2.80;72.90;1.80;99247.00;;;;5115206;28;20238;-71
2021/12/12 08:31:34;;;;;;;0.80;0.80;;;2.70;73.00;1.80;99250.00;;;;5097204;28;20295;-71
2021/12/12 08:34:01;;;;;;;1.90;1.53;;;2.70;73.30;1.80;99251.00;;;;5114074;28;20524;-72
2021/12/12 08:36:33;;;;;;;1.17;1.17;;;2.70;73.20;2.00;99257.00;;;;5114934;28;20635;-71
2021/12/12 08:39:00;;;;;;;0.60;0.60;;;2.90;73.30;2.20;99254.00;;;;5114837;28;20225;-71
2021/12/12 08:41:27;;;;;;;1.00;1.00;;;2.90;72.20;2.20;99255.00;;;;5114933;28;20222;-71
2021/12/12 08:43:54;;;;;;;0.90;0.90;;;3.00;71.20;2.10;99261.00;;;;5096973;28;20208;-71
2021/12/12 08:46:23;;;;;;;0.80;0.80;;;3.00;71.10;2.20;99255.00;;;;5114778;28;20252;-71
2021/12/12 08:48:52;;;;;;;0.80;0.80;;;3.00;70.80;2.20;99266.00;;;;5114766;28;20212;-71
2021/12/12 08:51:29;;;;;;;0.63;0.63;;;3.10;70.90;2.50;99271.00;;;;5114653;28;20217;-71
2021/12/12 08:54:01;;;;;;;0.80;0.80;;;3.20;70.10;2.50;99275.00;;;;5096826;28;20208;-71
2021/12/12 08:56:41;;;;;;;0.80;0.80;;;3.20;70.40;2.20;99270.00;;;;5114866;28;20203;-71
2021/12/12 08:59:10;;;;;;;1.50;1.40;;;3.10;69.90;2.30;99269.00;;;;5114606;28;20236;-71
2021/12/12 09:01:40;;;;;;;1.83;1.73;;;3.20;70.50;2.50;99277.00;;;;5114596;28;20628;-71
2021/12/12 09:04:09;;;;;;;0.77;0.77;;;3.30;70.10;2.50;99261.00;;;;5114540;28;20611;-71
2021/12/12 09:06:47;;;;;;;1.40;1.30;;;3.40;69.60;2.60;99266.00;;;;5096640;28;20209;-71
2021/12/12 09:09:20;;;;;;;0.87;0.87;;;3.40;69.60;2.70;99271.00;;;;5114499;28;20209;-71
2021/12/12 09:11:59;;;;;;;0.90;0.90;;;3.40;69.60;2.80;99285.00;;;;5114510;28;20205;-71
2021/12/12 09:14:34;;;;;;;1.23;1.23;;;3.60;67.30;2.90;99276.00;;;;5114458;28;20204;-71
2021/12/12 09:17:06;;;;;;;0.80;0.80;;;3.60;68.00;3.10;99254.00;;;;5114396;28;20228;-71
2021/12/12 09:19:39;;;;;;;0.87;0.83;;;3.70;67.20;3.10;99273.00;;;;5114372;28;20302;-71
2021/12/12 09:22:16;;;;;;;0.80;0.80;;;3.80;67.00;3.00;99270.00;;;;5114356;28;20221;-71
2021/12/12 09:24:57;;;;;;;0.70;0.70;;;3.90;67.10;3.10;99281.00;;;;5114323;28;20579;-72
2021/12/12 09:27:30;;;;;;;0.73;0.73;;;3.90;66.50;3.20;99274.00;;;;5114411;28;20634;-72
2021/12/12 09:30:03;;;;;;;1.40;1.30;;;4.00;66.50;3.40;99275.00;;;;5114265;28;20204;-71
2021/12/12 09:32:39;;;;;;;1.93;1.80;;;4.00;66.60;3.40;99279.00;;;;5114363;28;20233;-70
2021/12/12 09:35:12;;;;;;;0.80;0.80;;;4.10;66.20;3.40;99274.00;;;;5097413;28;20370;-70
2021/12/12 09:37:44;;;;;;;0.70;0.70;;;4.20;65.70;3.30;99276.00;;;;5117865;28;20799;-71
2021/12/12 09:40:35;;;;;;;0.60;0.60;;;4.20;65.50;3.60;99275.00;;;;5117576;28;20249;-71
2021/12/12 09:43:33;;;;;;;0.60;0.60;;;4.30;64.80;3.40;99251.00;;;;5117816;28;20635;-72
2021/12/12 09:46:07;;;;;;;0.60;0.60;;;4.40;64.70;3.80;99271.00;;;;5099577;28;20233;-73
2021/12/12 09:52:26;;;;;;;0.60;0.60;;;4.60;63.80;3.90;99268.00;;;;5117424;28;20266;-72
2021/12/12 09:55:02;;;;;;;0.60;0.60;;;4.70;62.40;3.80;99262.00;;;;5117564;28;20243;-73
2021/12/12 09:57:38;;;;;;;1.00;1.00;;;4.60;63.60;3.70;99258.00;;;;5117423;28;20236;-73
2021/12/12 10:00:16;;;;;;;0.63;0.63;;;4.50;63.30;3.70;99259.00;;;;5117537;28;20245;-72
2021/12/12 10:03:21;;;;;;;0.60;0.60;;;4.50;63.80;3.50;99255.00;;;;5099502;28;20194;-72
2021/12/12 10:06:04;;;;;;;0.60;0.60;;;4.30;64.40;3.50;99255.00;;;;5099305;28;20179;-72
2021/12/12 10:08:54;;;;;;;1.10;1.10;;;4.30;64.10;3.60;99244.00;;;;5117231;28;20206;-73
2021/12/12 10:11:34;;;;;;;0.77;0.77;;;4.40;64.40;3.80;99235.00;;;;5117414;28;20226;-72
2021/12/12 10:14:11;;;;;;;0.67;0.67;;;4.50;64.40;3.80;99240.00;;;;5117311;28;20201;-73
2021/12/12 10:16:48;;;;;;;0.90;0.90;;;4.60;64.20;3.90;99237.00;;;;5099273;28;20197;-73
2021/12/12 10:19:28;;;;;;;1.00;1.00;;;4.60;63.50;4.10;99241.00;;;;5117149;28;20201;-72
2021/12/12 10:22:13;;;;;;;0.60;0.60;;;4.80;63.80;3.90;99228.00;;;;5117191;28;20218;-72
2021/12/12 10:24:49;;;;;;;3.97;1.80;;;4.70;62.60;3.90;99218.00;;;;5117416;28;20233;-73
2021/12/12 10:27:28;;;;;;;1.10;1.10;;;4.70;63.40;3.80;99236.00;;;;5117161;28;20641;-71
2021/12/12 10:30:07;;;;;;;0.60;0.60;;;4.70;63.70;3.80;99234.00;;;;5099390;28;20197;-72
2021/12/12 10:32:48;;;;;;;0.80;0.80;;;4.60;62.90;3.70;99233.00;;;;5116909;28;20274;-72
2021/12/12 10:35:22;;;;;;;1.17;1.10;;;4.50;63.80;4.00;99223.00;;;;5117119;28;20198;-72
2021/12/12 10:37:57;;;;;;;1.20;1.17;;;4.60;64.10;4.20;99236.00;;;;5116811;28;20256;-72
2021/12/12 10:40:30;;;;;;;1.13;1.13;;;4.80;63.20;4.20;99242.00;;;;5116981;28;20229;-72
2021/12/12 10:43:07;;;;;;;0.93;0.93;;;4.90;62.80;4.50;99245.00;;;;5116859;28;20197;-71
2021/12/12 10:45:49;;;;;;;0.70;0.70;;;5.10;62.20;4.40;99246.00;;;;5116836;28;20193;-73
2021/12/12 10:48:19;;;;;;;0.70;0.70;;;5.10;62.00;4.50;99247.00;;;;5098070;28;20202;-72
2021/12/12 10:51:00;;;;;;;0.67;0.67;;;5.30;61.90;4.70;99248.00;;;;5116560;28;20247;-72
2021/12/12 10:53:40;;;;;;;0.60;0.60;;;5.30;62.70;4.60;99245.00;;;;5116617;28;20210;-71
2021/12/12 10:56:19;;;;;;;0.60;0.60;;;5.40;61.30;4.90;99248.00;;;;5116545;28;20251;-72
2021/12/12 10:58:52;;;;;;;0.80;0.80;;;5.50;61.50;4.80;99234.00;;;;5116550;28;20197;-72
2021/12/12 11:01:25;;;;;;;0.67;0.67;;;5.50;61.30;4.90;99226.00;;;;5116614;28;20317;-71
2021/12/12 11:04:01;;;;;;;1.00;1.00;;;5.60;60.70;4.80;99223.00;;;;5116517;28;20205;-71
2021/12/12 11:06:38;;;;;;;0.60;0.60;;;5.50;61.40;4.90;99211.00;;;;5116791;28;20233;-71
2021/12/12 11:09:13;;;;;;;0.80;0.80;;;5.60;62.00;4.80;99233.00;;;;5116598;28;20194;-71
2021/12/12 11:11:46;;;;;;;0.80;0.80;;;5.50;60.70;4.90;99232.00;;;;5116261;28;20205;-70
2021/12/12 11:14:19;;;;;;;0.80;0.80;;;5.60;61.00;4.80;99226.00;;;;5116316;28;20706;-70
2021/12/12 11:16:55;;;;;;;0.70;0.70;;;5.60;61.40;4.90;99232.00;;;;5116344;28;20206;-72
2021/12/12 11:19:32;;;;;;;0.90;0.90;;;5.60;60.90;4.90;99230.00;;;;5116185;28;20214;-70
2021/12/12 11:22:07;;;;;;;0.60;0.60;;;5.60;61.10;4.50;99225.00;;;;5116283;28;20217;-71
2021/12/12 11:24:41;;;;;;;0.90;0.90;;;5.40;60.30;5.00;99229.00;;;;5116088;28;20221;-70
2021/12/12 11:27:15;;;;;;;1.10;1.10;;;5.60;60.60;4.90;99224.00;;;;5116225;28;20199;-71
2021/12/12 11:29:48;;;;;;;0.50;0.50;;;5.60;60.30;4.90;99228.00;;;;5098049;28;20516;-70
2021/12/12 11:32:24;;;;;;;1.03;1.03;;;5.70;60.50;5.00;99221.00;;;;5116093;28;20242;-71
2021/12/12 11:34:56;;;;;;;0.90;0.90;;;5.70;60.00;5.00;99197.00;;;;5115900;28;20308;-71
2021/12/12 11:37:36;;;;;;;0.60;0.60;;;5.70;59.50;5.00;99109.00;;;;5097938;28;20198;-72
2021/12/12 11:40:18;;;;;;;1.60;1.27;;;5.70;60.20;4.80;99167.00;;;;5097997;28;20218;-74
2021/12/12 11:42:56;;;;;;;0.60;0.60;;;5.70;59.90;4.90;99108.00;;;;5098148;28;20258;-72
2021/12/12 11:45:30;;;;;;;0.73;0.73;;;5.70;60.20;4.70;99213.00;;;;5098158;28;20202;-73
2021/12/12 11:48:13;;;;;;;0.60;0.60;;;5.70;59.70;5.10;99213.00;;;;5097963;28;20209;-72
2021/12/12 11:50:50;;;;;;;0.80;0.80;;;5.70;60.60;5.10;99211.00;;;;5115739;28;20280;-71